Time;durP1;ratioP1;P1;durP2;ratioP2;P2;SDS_P1;SDS_P2;PMS_P1;PMS_P2;Temp;Humidity;BMP_temperature;BMP_pressure;BME280_temperature;BME280_humidity;BME280_pressure;Samples;Min_cycle;Max_cycle;Signal;HPM_P1;HPM_P2
2021/04/08 00:00:50;;;;;;;11.27;7.63;;;;;;;;;;5022744;28;20546;-93
2021/04/08 00:03:16;;;;;;;11.70;8.65;;;;;;;;;;5019715;28;20239;-94
2021/04/08 00:05:42;;;;;;;14.53;9.67;;;;;;;;;;5021816;28;20202;-91
2021/04/08 00:08:09;;;;;;;13.70;10.90;;;;;;;;;;5019000;28;20549;-91
2021/04/08 00:10:35;;;;;;;14.73;10.50;;;;;;;;;;5016069;28;20454;-92
2021/04/08 00:13:01;;;;;;;13.27;10.93;;;;;;;;;;5022843;28;20223;-93
2021/04/08 00:15:27;;;;;;;14.50;10.33;;;;;;;;;;5023592;28;20210;-91
2021/04/08 00:17:53;;;;;;;15.82;10.52;;;;;;;;;;5019662;28;20465;-91
2021/04/08 00:20:21;;;;;;;14.03;10.40;;;;;;;;;;5021195;28;20211;-91
2021/04/08 00:22:47;;;;;;;12.15;9.85;;;;;;;;;;5018735;28;20520;-91
2021/04/08 00:25:15;;;;;;;15.70;10.40;;;;;;;;;;5022889;28;20204;-92
2021/04/08 00:27:41;;;;;;;13.30;10.20;;;;;;;;;;5020658;28;20218;-91
2021/04/08 00:30:07;;;;;;;14.30;11.07;;;;;;;;;;5022577;28;20211;-91
2021/04/08 00:32:33;;;;;;;13.75;10.70;;;;;;;;;;5020287;28;20494;-91
2021/04/08 00:34:59;;;;;;;16.10;10.93;;;;;;;;;;5021766;28;20204;-91
2021/04/08 00:37:25;;;;;;;13.00;10.17;;;;;;;;;;5022206;28;20663;-91
2021/04/08 00:39:51;;;;;;;13.30;11.07;;;;;;;;;;5017560;28;20460;-91
2021/04/08 00:42:18;;;;;;;14.50;9.90;;;;;;;;;;5021237;28;20517;-91
2021/04/08 00:44:44;;;;;;;16.25;11.38;;;;;;;;;;5018168;28;20454;-92
2021/04/08 00:47:10;;;;;;;14.20;12.32;;;;;;;;;;5023869;28;20244;-91
2021/04/08 00:49:36;;;;;;;15.03;11.63;;;;;;;;;;5027430;28;20235;-90
2021/04/08 00:52:02;;;;;;;13.43;10.15;;;;;;;;;;5022517;28;20498;-90
2021/04/08 00:54:28;;;;;;;13.40;10.20;;;;;;;;;;5017164;28;20269;-90
2021/04/08 00:56:55;;;;;;;17.08;10.63;;;;;;;;;;5019661;28;20209;-91
2021/04/08 00:59:21;;;;;;;10.60;8.40;;;;;;;;;;5019847;28;20639;-90
2021/04/08 01:01:48;;;;;;;11.52;8.13;;;;;;;;;;5021885;28;20222;-90
2021/04/08 01:04:13;;;;;;;12.25;7.95;;;;;;;;;;5020052;28;20271;-91
2021/04/08 01:06:40;;;;;;;10.50;8.60;;;;;;;;;;5021758;28;20216;-90
2021/04/08 01:09:06;;;;;;;14.50;8.35;;;;;;;;;;5019696;28;20457;-89
2021/04/08 01:11:32;;;;;;;14.20;9.70;;;;;;;;;;5027253;28;20207;-92
2021/04/08 01:13:58;;;;;;;11.87;9.40;;;;;;;;;;5032483;28;20296;-92
2021/04/08 01:16:29;;;;;;;14.73;10.75;;;;;;;;;;5022012;28;20454;-91
2021/04/08 01:18:59;;;;;;;11.23;10.02;;;;;;;;;;5021708;28;20215;-90
2021/04/08 01:21:27;;;;;;;13.50;11.27;;;;;;;;;;5019177;28;20225;-91
2021/04/08 01:24:23;;;;;;;15.80;12.18;;;;;;;;;;5025011;28;20298;-91
2021/04/08 01:27:13;;;;;;;14.95;12.30;;;;;;;;;;5020546;28;20206;-90
2021/04/08 01:29:46;;;;;;;18.98;13.70;;;;;;;;;;5000542;28;20202;-94
2021/04/08 01:32:15;;;;;;;20.08;17.70;;;;;;;;;;5020997;28;21615;-93
2021/04/08 01:34:45;;;;;;;23.52;19.25;;;;;;;;;;5022129;28;20208;-91
2021/04/08 01:37:12;;;;;;;13.75;12.30;;;;;;;;;;5019592;28;20242;-93
2021/04/08 01:39:39;;;;;;;17.65;12.70;;;;;;;;;;5020631;28;20212;-93
2021/04/08 01:42:06;;;;;;;14.50;12.55;;;;;;;;;;5018896;28;20221;-92
2021/04/08 01:44:32;;;;;;;15.77;11.55;;;;;;;;;;5012490;28;20221;-91
2021/04/08 01:46:59;;;;;;;13.98;9.82;;;;;;;;;;5019058;28;20234;-91
2021/04/08 01:49:27;;;;;;;14.25;10.63;;;;;;;;;;5021655;28;20205;-93
2021/04/08 01:51:53;;;;;;;15.07;10.10;;;;;;;;;;5019491;28;20229;-92
2021/04/08 01:54:21;;;;;;;11.32;8.80;;;;;;;;;;5021038;28;20203;-90
2021/04/08 01:56:47;;;;;;;14.15;10.13;;;;;;;;;;5020152;28;20206;-91
2021/04/08 01:59:14;;;;;;;12.55;9.55;;;;;;;;;;5030579;28;20201;-92
2021/04/08 02:01:45;;;;;;;17.23;10.27;;;;;;;;;;5031412;28;20213;-91
2021/04/08 02:04:12;;;;;;;13.80;9.85;;;;;;;;;;5025117;28;20645;-91
2021/04/08 02:06:40;;;;;;;15.35;10.60;;;;;;;;;;5022141;28;20215;-92
2021/04/08 02:09:06;;;;;;;13.20;10.00;;;;;;;;;;5024141;28;20923;-90
2021/04/08 02:11:32;;;;;;;16.83;11.13;;;;;;;;;;5014866;28;20224;-91
2021/04/08 02:13:59;;;;;;;13.57;9.65;;;;;;;;;;5024877;28;20214;-91
2021/04/08 02:16:25;;;;;;;14.70;9.75;;;;;;;;;;5025094;28;20215;-90
2021/04/08 02:18:53;;;;;;;14.93;11.07;;;;;;;;;;5022812;28;20218;-92
2021/04/08 02:21:19;;;;;;;12.18;8.82;;;;;;;;;;5025009;28;20205;-91
2021/04/08 02:23:47;;;;;;;13.32;10.02;;;;;;;;;;5022301;28;20234;-91
2021/04/08 02:26:14;;;;;;;13.48;9.63;;;;;;;;;;5025596;28;20214;-90
2021/04/08 02:28:40;;;;;;;12.23;9.63;;;;;;;;;;5022532;28;20209;-89
2021/04/08 02:31:07;;;;;;;14.82;9.57;;;;;;;;;;5025719;28;20259;-90
2021/04/08 02:33:33;;;;;;;11.98;9.32;;;;;;;;;;5022422;28;20253;-92
2021/04/08 02:36:00;;;;;;;17.05;9.95;;;;;;;;;;5032955;28;20214;-92
2021/04/08 02:38:26;;;;;;;14.02;10.98;;;;;;;;;;5029255;28;20216;-90
2021/04/08 02:40:54;;;;;;;13.52;9.73;;;;;;;;;;5024668;28;20205;-92
2021/04/08 02:43:20;;;;;;;16.00;10.35;;;;;;;;;;5022395;28;20310;-90
2021/04/08 02:45:46;;;;;;;16.35;10.15;;;;;;;;;;5024145;28;20199;-91
2021/04/08 02:48:13;;;;;;;14.70;10.07;;;;;;;;;;5021218;28;20304;-93
2021/04/08 02:50:41;;;;;;;12.95;10.25;;;;;;;;;;5021495;28;20483;-94
2021/04/08 02:53:08;;;;;;;15.38;9.77;;;;;;;;;;5022313;28;20225;-93
2021/04/08 02:55:37;;;;;;;12.40;9.55;;;;;;;;;;5023096;28;20206;-92
2021/04/08 02:58:05;;;;;;;16.58;10.00;;;;;;;;;;5023925;28;20230;-88
2021/04/08 03:00:32;;;;;;;14.75;10.00;;;;;;;;;;5029855;28;20209;-89
2021/04/08 03:03:01;;;;;;;16.70;9.10;;;;;;;;;;5024685;28;20210;-89
2021/04/08 03:05:28;;;;;;;19.75;10.85;;;;;;;;;;5023162;28;20280;-90
2021/04/08 03:07:56;;;;;;;14.55;10.15;;;;;;;;;;5023677;28;20210;-90
2021/04/08 03:10:23;;;;;;;13.73;10.20;;;;;;;;;;5021373;28;20220;-94
2021/04/08 03:12:50;;;;;;;14.35;9.65;;;;;;;;;;5035355;28;20228;-92
2021/04/08 03:15:18;;;;;;;15.90;11.18;;;;;;;;;;5025360;28;20215;-92
2021/04/08 03:17:45;;;;;;;14.10;9.65;;;;;;;;;;5023984;28;20206;-94
2021/04/08 03:20:12;;;;;;;17.88;11.70;;;;;;;;;;5024563;28;20234;-92
2021/04/08 03:22:39;;;;;;;16.02;10.63;;;;;;;;;;5022562;28;20264;-93
2021/04/08 03:25:06;;;;;;;15.07;10.15;;;;;;;;;;5022714;28;20198;-93
2021/04/08 03:27:32;;;;;;;14.07;9.82;;;;;;;;;;5024073;28;20201;-93
2021/04/08 03:29:59;;;;;;;11.20;8.82;;;;;;;;;;5014391;28;20233;-90
2021/04/08 03:32:26;;;;;;;13.95;10.48;;;;;;;;;;5023889;28;20241;-94
2021/04/08 03:34:53;;;;;;;13.45;9.85;;;;;;;;;;5021697;28;20243;-93
2021/04/08 03:37:20;;;;;;;12.95;9.35;;;;;;;;;;5024037;28;20205;-95
2021/04/08 03:39:46;;;;;;;12.57;9.05;;;;;;;;;;5019539;28;20207;-90
2021/04/08 03:42:13;;;;;;;17.10;9.45;;;;;;;;;;5022117;28;20198;-94
2021/04/08 03:44:39;;;;;;;14.00;9.32;;;;;;;;;;5024541;28;20205;-93
2021/04/08 03:47:06;;;;;;;14.00;8.93;;;;;;;;;;5024406;28;20233;-92
2021/04/08 03:49:33;;;;;;;13.63;9.50;;;;;;;;;;5036034;28;20196;-93
2021/04/08 03:51:59;;;;;;;13.45;8.90;;;;;;;;;;5024149;28;20229;-95
2021/04/08 03:54:26;;;;;;;15.55;10.00;;;;;;;;;;5023161;28;20209;-93
2021/04/08 03:56:53;;;;;;;13.77;9.48;;;;;;;;;;5025576;28;20215;-96
2021/04/08 03:59:19;;;;;;;16.38;9.27;;;;;;;;;;5023673;28;20197;-93
2021/04/08 04:01:46;;;;;;;11.75;8.52;;;;;;;;;;5024852;28;20220;-96
2021/04/08 04:04:12;;;;;;;13.88;9.60;;;;;;;;;;5027539;28;20210;-94
2021/04/08 04:06:41;;;;;;;12.27;9.93;;;;;;;;;;5029419;28;20193;-90
2021/04/08 04:09:10;;;;;;;17.00;11.35;;;;;;;;;;5036541;28;20189;-95
2021/04/08 04:11:41;;;;;;;42.88;19.70;;;;;;;;;;5024603;28;20249;-96
2021/04/08 04:14:08;;;;;;;15.68;11.10;;;;;;;;;;5031954;28;20202;-95
2021/04/08 04:16:36;;;;;;;18.02;11.52;;;;;;;;;;5023106;28;20185;-96
2021/04/08 04:19:02;;;;;;;18.30;11.48;;;;;;;;;;5022604;28;20201;-94
2021/04/08 04:21:28;;;;;;;17.30;12.25;;;;;;;;;;5021320;28;20237;-95
2021/04/08 04:24:03;;;;;;;22.92;16.50;;;;;;;;;;5029683;28;20250;-96
2021/04/08 04:26:29;;;;;;;21.42;14.65;;;;;;;;;;5028559;28;20236;-93
2021/04/08 04:28:55;;;;;;;20.23;10.97;;;;;;;;;;5025586;28;20211;-94
2021/04/08 04:31:24;;;;;;;22.98;12.50;;;;;;;;;;5031061;28;20462;-96
2021/04/08 04:33:50;;;;;;;16.98;13.32;;;;;;;;;;5028773;28;20208;-95
2021/04/08 04:36:17;;;;;;;14.65;10.82;;;;;;;;;;5030978;28;20210;-94
2021/04/08 04:38:47;;;;;;;16.85;12.23;;;;;;;;;;5030314;28;20673;-96
2021/04/08 04:41:57;;;;;;;19.70;14.60;;;;;;;;;;5028230;28;20264;-96
2021/04/08 04:44:25;;;;;;;11.35;8.02;;;;;;;;;;5027345;28;20220;-94
2021/04/08 04:46:51;;;;;;;14.65;9.90;;;;;;;;;;5022067;28;20229;-92
2021/04/08 04:49:17;;;;;;;15.88;10.82;;;;;;;;;;5020672;28;20220;-94
2021/04/08 04:51:43;;;;;;;14.77;9.90;;;;;;;;;;5022202;28;20268;-94
2021/04/08 04:54:09;;;;;;;13.50;11.35;;;;;;;;;;5019454;28;20798;-96
2021/04/08 04:56:36;;;;;;;14.38;9.85;;;;;;;;;;5020639;28;20215;-96
2021/04/08 04:59:02;;;;;;;15.02;10.77;;;;;;;;;;5021711;28;20217;-93
2021/04/08 05:01:29;;;;;;;18.67;10.63;;;;;;;;;;5029365;28;20201;-94
2021/04/08 05:03:55;;;;;;;14.55;11.18;;;;;;;;;;5026360;28;20241;-94
2021/04/08 05:06:23;;;;;;;12.13;9.35;;;;;;;;;;5026007;28;20211;-96
2021/04/08 05:08:51;;;;;;;14.35;10.90;;;;;;;;;;5025166;28;20204;-96
2021/04/08 05:11:17;;;;;;;13.32;10.40;;;;;;;;;;5028731;28;20208;-93
2021/04/08 05:13:46;;;;;;;13.52;11.25;;;;;;;;;;5020672;28;20219;-96
2021/04/08 05:16:13;;;;;;;18.02;12.10;;;;;;;;;;5021765;28;20226;-95
2021/04/08 05:18:40;;;;;;;14.40;10.15;;;;;;;;;;5021393;28;20201;-96
2021/04/08 05:21:07;;;;;;;15.82;10.35;;;;;;;;;;5026524;28;20211;-95
2021/04/08 05:23:33;;;;;;;14.45;10.15;;;;;;;;;;5023650;28;20557;-92
2021/04/08 05:25:59;;;;;;;15.10;10.97;;;;;;;;;;5020107;28;20219;-96
2021/04/08 05:28:25;;;;;;;10.88;8.90;;;;;;;;;;5026203;28;20486;-93
2021/04/08 05:30:51;;;;;;;14.00;10.37;;;;;;;;;;5021329;28;20210;-96
2021/04/08 05:33:17;;;;;;;15.15;10.77;;;;;;;;;;5028003;28;20492;-92
2021/04/08 05:35:46;;;;;;;14.73;9.40;;;;;;;;;;5030640;28;20212;-94
2021/04/08 05:38:12;;;;;;;18.55;10.15;;;;;;;;;;5027780;28;20236;-92
2021/04/08 05:40:38;;;;;;;13.47;9.60;;;;;;;;;;5023254;28;20213;-90
2021/04/08 05:43:05;;;;;;;15.30;9.70;;;;;;;;;;5026562;28;20459;-91
2021/04/08 05:45:31;;;;;;;12.45;9.23;;;;;;;;;;5021687;28;20206;-89
2021/04/08 05:47:58;;;;;;;17.23;8.98;;;;;;;;;;5018024;28;20229;-91
2021/04/08 05:50:25;;;;;;;11.30;9.10;;;;;;;;;;5018813;28;20210;-91
2021/04/08 05:52:52;;;;;;;14.23;9.80;;;;;;;;;;5019277;28;20225;-91
2021/04/08 05:55:18;;;;;;;12.68;8.35;;;;;;;;;;5021943;28;20292;-90
2021/04/08 05:57:44;;;;;;;17.42;10.45;;;;;;;;;;5020135;28;20218;-91
2021/04/08 06:00:13;;;;;;;13.00;9.60;;;;;;;;;;5017611;28;20209;-96
2021/04/08 06:02:39;;;;;;;15.43;9.45;;;;;;;;;;5018989;28;20196;-95
2021/04/08 06:05:06;;;;;;;16.73;10.40;;;;;;;;;;5019260;28;20217;-93
2021/04/08 06:07:33;;;;;;;10.98;7.65;;;;;;;;;;5023281;28;20211;-95
2021/04/08 06:10:03;;;;;;;13.98;9.30;;;;;;;;;;5022980;28;20219;-93
2021/04/08 06:12:29;;;;;;;14.32;9.27;;;;;;;;;;5029836;28;20234;-93
2021/04/08 06:14:56;;;;;;;16.33;8.90;;;;;;;;;;5022270;28;20225;-94
2021/04/08 06:17:22;;;;;;;16.67;8.90;;;;;;;;;;5018504;28;20477;-93
2021/04/08 06:19:48;;;;;;;8.27;6.43;;;;;;;;;;5019141;28;20230;-94
2021/04/08 06:22:15;;;;;;;15.75;9.07;;;;;;;;;;5001081;28;20470;-93
2021/04/08 06:24:41;;;;;;;10.95;5.97;;;;;;;;;;5024198;28;20213;-94
2021/04/08 06:27:13;;;;;;;11.90;8.15;;;;;;;;;;5022952;28;20211;-96
2021/04/08 06:29:39;;;;;;;15.82;10.55;;;;;;;;;;5009583;28;20247;-95
2021/04/08 06:32:06;;;;;;;16.67;10.10;;;;;;;;;;5024145;28;20233;-94
2021/04/08 06:34:32;;;;;;;14.75;9.45;;;;;;;;;;5023204;28;20479;-95
2021/04/08 06:37:00;;;;;;;17.40;10.37;;;;;;;;;;5022360;28;20869;-95
2021/04/08 06:39:26;;;;;;;10.35;7.95;;;;;;;;;;5022011;28;20494;-94
2021/04/08 06:41:52;;;;;;;14.55;9.98;;;;;;;;;;5051775;23;20236;-93
2021/04/08 06:44:23;;;;;;;14.53;7.87;;;;;;;;;;5062481;28;20196;-95
2021/04/08 06:46:53;;;;;;;9.87;7.17;;;;;;;;;;5063628;28;20457;-95
2021/04/08 06:49:20;;;;;;;12.63;6.90;;;;;;;;;;5046880;28;20446;-96
2021/04/08 06:51:49;;;;;;;13.63;6.70;;;;;;;;;;5055438;28;20495;-93
2021/04/08 06:54:16;;;;;;;11.98;6.00;;;;;;;;;;5051793;28;20456;-94
2021/04/08 06:56:42;;;;;;;18.50;9.43;;;;;;;;;;5064592;28;20671;-92
2021/04/08 06:59:08;;;;;;;12.07;8.30;;;;;;;;;;5052761;28;20469;-93
2021/04/08 07:01:35;;;;;;;15.23;8.30;;;;;;;;;;5057987;28;21143;-93
2021/04/08 07:04:02;;;;;;;9.57;6.50;;;;;;;;;;5045206;28;20517;-93
2021/04/08 07:06:28;;;;;;;10.77;8.30;;;;;;;;;;5046383;28;20455;-93
2021/04/08 07:08:55;;;;;;;13.43;10.53;;;;;;;;;;5043007;28;20463;-94
2021/04/08 07:11:23;;;;;;;10.43;7.33;;;;;;;;;;5053676;28;21074;-94
2021/04/08 07:13:49;;;;;;;13.85;8.35;;;;;;;;;;5047250;28;20468;-93
2021/04/08 07:16:16;;;;;;;12.20;8.40;;;;;;;;;;5052474;28;20203;-94
2021/04/08 07:18:42;;;;;;;11.93;7.90;;;;;;;;;;5054252;28;20475;-92
2021/04/08 07:21:09;;;;;;;12.30;8.63;;;;;;;;;;5045465;28;20447;-94
2021/04/08 07:23:35;;;;;;;13.07;7.40;;;;;;;;;;5049957;28;20455;-91
2021/04/08 07:26:02;;;;;;;7.73;5.50;;;;;;;;;;5049574;28;21284;-92
2021/04/08 07:28:29;;;;;;;7.20;5.47;;;;;;;;;;5054404;28;20445;-90
2021/04/08 07:30:55;;;;;;;10.70;7.87;;;;;;;;;;5050619;28;20450;-92
2021/04/08 07:33:21;;;;;;;15.73;7.90;;;;;;;;;;5046969;28;20570;-95
2021/04/08 07:35:48;;;;;;;10.13;7.57;;;;;;;;;;5046904;28;20449;-96
2021/04/08 07:38:14;;;;;;;11.27;6.40;;;;;;;;;;5050430;28;20442;-91
2021/04/08 07:40:55;;;;;;;11.27;7.10;;;;;;;;;;5043069;28;20478;-94
2021/04/08 07:43:22;;;;;;;9.40;6.30;;;;;;;;;;5044622;28;20465;-93
2021/04/08 07:45:48;;;;;;;10.40;7.27;;;;;;;;;;5050515;28;20451;-92
2021/04/08 07:48:14;;;;;;;13.33;8.90;;;;;;;;;;5054808;28;20448;-94
2021/04/08 07:50:43;;;;;;;12.10;8.13;;;;;;;;;;5056592;28;20483;-95
2021/04/08 07:53:18;;;;;;;10.63;8.00;;;;;;;;;;5052053;28;20515;-93
2021/04/08 07:55:44;;;;;;;12.13;8.00;;;;;;;;;;5042562;28;20462;-91
2021/04/08 07:58:12;;;;;;;10.57;8.00;;;;;;;;;;5040133;28;20450;-90
2021/04/08 08:00:39;;;;;;;8.63;5.77;;;;;;;;;;5047461;28;20451;-93
2021/04/08 08:03:06;;;;;;;12.47;7.80;;;;;;;;;;5050351;28;20983;-93
2021/04/08 08:05:32;;;;;;;11.10;6.53;;;;;;;;;;5046741;28;20507;-93
2021/04/08 08:08:09;;;;;;;12.80;5.37;;;;;;;;;;5049828;28;20451;-92
2021/04/08 08:10:39;;;;;;;8.90;5.10;;;;;;;;;;5042717;28;20834;-92
2021/04/08 08:13:07;;;;;;;9.23;7.87;;;;;;;;;;5044992;28;21004;-92
2021/04/08 08:15:33;;;;;;;9.97;7.43;;;;;;;;;;5053208;28;20461;-96
2021/04/08 08:17:59;;;;;;;6.23;5.47;;;;;;;;;;5040487;28;20471;-96
2021/04/08 08:20:27;;;;;;;7.37;4.43;;;;;;;;;;5053249;28;20461;-93
2021/04/08 08:22:55;;;;;;;7.33;5.67;;;;;;;;;;5061930;28;20461;-94
2021/04/08 08:25:22;;;;;;;8.60;5.90;;;;;;;;;;5061333;28;20456;-94
2021/04/08 08:27:51;;;;;;;9.00;6.10;;;;;;;;;;5048757;28;20466;-93
2021/04/08 08:30:18;;;;;;;7.80;6.33;;;;;;;;;;5043118;28;20467;-93
2021/04/08 08:33:03;;;;;;;9.90;6.20;;;;;;;;;;5046609;28;20501;-96
2021/04/08 08:35:29;;;;;;;8.40;5.10;;;;;;;;;;5056093;28;20462;-95
2021/04/08 08:37:57;;;;;;;9.43;4.43;;;;;;;;;;5052346;28;20978;-95
2021/04/08 08:40:23;;;;;;;8.07;6.30;;;;;;;;;;5047972;28;20522;-94
2021/04/08 08:42:51;;;;;;;7.93;5.50;;;;;;;;;;5045482;28;20483;-95
2021/04/08 08:45:18;;;;;;;9.37;5.50;;;;;;;;;;5063577;28;20463;-96
2021/04/08 08:47:44;;;;;;;5.97;4.50;;;;;;;;;;5054151;28;20466;-91
2021/04/08 08:50:11;;;;;;;6.33;5.73;;;;;;;;;;5050363;28;20462;-92
2021/04/08 08:52:38;;;;;;;9.07;6.40;;;;;;;;;;5044474;28;20495;-92
2021/04/08 08:55:06;;;;;;;6.53;5.80;;;;;;;;;;5053413;28;20485;-96
2021/04/08 08:57:32;;;;;;;6.70;4.87;;;;;;;;;;5032719;28;20451;-96
2021/04/08 08:59:59;;;;;;;6.13;4.23;;;;;;;;;;5048837;28;20549;-96
2021/04/08 09:02:25;;;;;;;5.03;4.13;;;;;;;;;;5053297;28;20442;-94
2021/04/08 09:04:52;;;;;;;8.20;4.80;;;;;;;;;;5038075;28;20524;-96
2021/04/08 09:07:20;;;;;;;5.10;4.13;;;;;;;;;;5026624;28;20451;-95
2021/04/08 09:09:53;;;;;;;5.67;4.87;;;;;;;;;;5046752;28;20453;-96
2021/04/08 09:12:19;;;;;;;4.53;4.00;;;;;;;;;;5044852;28;20486;-93
2021/04/08 09:14:46;;;;;;;7.30;5.40;;;;;;;;;;5054215;28;20492;-95
2021/04/08 09:17:14;;;;;;;9.60;4.87;;;;;;;;;;5052472;28;20507;-93
2021/04/08 09:19:41;;;;;;;6.53;5.80;;;;;;;;;;5056013;28;20462;-96
2021/04/08 09:22:12;;;;;;;6.93;5.03;;;;;;;;;;5043687;28;20439;-96
2021/04/08 09:24:39;;;;;;;6.47;5.77;;;;;;;;;;5047044;28;20486;-92
2021/04/08 09:27:06;;;;;;;5.10;4.60;;;;;;;;;;5054226;28;20450;-95
2021/04/08 09:29:52;;;;;;;9.63;5.40;;;;;;;;;;5051853;28;20450;-96
2021/04/08 09:32:30;;;;;;;12.80;7.00;;;;;;;;;;5051980;28;20541;-95
2021/04/08 09:35:07;;;;;;;8.40;6.30;;;;;;;;;;5061589;28;20468;-92
2021/04/08 09:37:48;;;;;;;8.27;5.23;;;;;;;;;;5066930;28;20465;-92
2021/04/08 09:40:32;;;;;;;7.67;5.00;;;;;;;;;;5043961;28;20466;-92
2021/04/08 09:43:00;;;;;;;7.40;6.00;;;;;;;;;;5053446;28;20478;-95
2021/04/08 09:45:27;;;;;;;11.93;6.57;;;;;;;;;;5060243;28;20446;-96
2021/04/08 09:48:06;;;;;;;5.73;4.70;;;;;;;;;;5043403;28;20458;-95
2021/04/08 09:50:42;;;;;;;8.00;5.17;;;;;;;;;;5052942;28;20457;-96
2021/04/08 09:53:09;;;;;;;5.53;4.53;;;;;;;;;;5047116;28;20494;-96
2021/04/08 09:55:37;;;;;;;4.50;4.10;;;;;;;;;;5055496;28;20462;-96
2021/04/08 09:58:03;;;;;;;6.47;5.00;;;;;;;;;;5039462;28;20498;-96
2021/04/08 10:00:30;;;;;;;4.83;4.40;;;;;;;;;;5049585;28;20446;-92
2021/04/08 10:03:06;;;;;;;5.67;4.47;;;;;;;;;;5044500;28;20455;-96
2021/04/08 10:05:33;;;;;;;5.30;4.80;;;;;;;;;;5045025;28;20454;-96
2021/04/08 10:08:00;;;;;;;6.03;4.90;;;;;;;;;;5041389;28;20452;-93
2021/04/08 10:10:38;;;;;;;6.50;4.80;;;;;;;;;;5049240;28;20522;-94
2021/04/08 10:13:14;;;;;;;6.50;4.70;;;;;;;;;;5060498;28;20481;-95
2021/04/08 10:15:40;;;;;;;6.50;5.33;;;;;;;;;;5045368;28;20457;-95
2021/04/08 10:18:09;;;;;;;8.57;3.33;;;;;;;;;;5047771;28;20958;-94
2021/04/08 10:20:37;;;;;;;5.20;4.70;;;;;;;;;;5026851;28;20459;-96
2021/04/08 10:23:03;;;;;;;6.23;4.13;;;;;;;;;;5050923;28;20451;-95
2021/04/08 10:25:29;;;;;;;4.90;3.10;;;;;;;;;;5035920;28;20455;-95
2021/04/08 10:27:57;;;;;;;4.60;4.00;;;;;;;;;;5056582;28;20446;-96
2021/04/08 10:30:24;;;;;;;6.40;3.40;;;;;;;;;;5054476;28;20431;-89
2021/04/08 10:32:50;;;;;;;4.63;4.10;;;;;;;;;;5046590;28;20498;-95
2021/04/08 10:35:23;;;;;;;4.83;4.33;;;;;;;;;;5063013;28;20480;-94
2021/04/08 10:38:04;;;;;;;3.40;3.07;;;;;;;;;;5050405;28;20506;-95
2021/04/08 10:40:30;;;;;;;5.27;3.97;;;;;;;;;;5056366;28;20461;-94
2021/04/08 10:43:09;;;;;;;6.27;4.10;;;;;;;;;;5053285;28;20477;-96
2021/04/08 10:45:36;;;;;;;5.33;3.60;;;;;;;;;;5051611;28;20476;-96
2021/04/08 10:48:05;;;;;;;5.47;4.40;;;;;;;;;;5055941;28;20454;-96
2021/04/08 10:50:31;;;;;;;4.70;3.40;;;;;;;;;;5060761;28;20683;-95
2021/04/08 10:52:59;;;;;;;3.33;2.50;;;;;;;;;;5068387;28;20469;-95
2021/04/08 10:55:26;;;;;;;5.30;3.70;;;;;;;;;;5055429;28;20457;-95
2021/04/08 10:57:52;;;;;;;4.00;3.63;;;;;;;;;;5059928;28;20456;-93
2021/04/08 11:00:21;;;;;;;3.57;3.07;;;;;;;;;;5068314;28;20450;-96
2021/04/08 11:02:49;;;;;;;3.37;2.97;;;;;;;;;;5060926;28;20451;-95
2021/04/08 11:05:15;;;;;;;4.40;3.40;;;;;;;;;;5052219;28;20455;-94
2021/04/08 11:07:43;;;;;;;4.47;4.07;;;;;;;;;;5048117;28;20456;-94
2021/04/08 11:10:13;;;;;;;3.00;2.60;;;;;;;;;;5055391;28;20463;-96
2021/04/08 11:12:42;;;;;;;4.13;3.73;;;;;;;;;;5038160;28;20482;-96
2021/04/08 11:15:10;;;;;;;3.50;3.20;;;;;;;;;;5049493;28;20456;-96
2021/04/08 11:17:40;;;;;;;7.10;3.43;;;;;;;;;;5054198;28;20508;-96
2021/04/08 11:20:06;;;;;;;4.00;3.60;;;;;;;;;;5065172;28;20458;-95
2021/04/08 11:22:34;;;;;;;3.90;3.60;;;;;;;;;;5067515;28;20460;-94
2021/04/08 11:25:00;;;;;;;4.90;3.70;;;;;;;;;;5028193;28;20864;-96
2021/04/08 11:27:28;;;;;;;3.20;3.00;;;;;;;;;;5060241;28;20461;-95
2021/04/08 11:29:55;;;;;;;5.03;3.40;;;;;;;;;;5050410;28;20524;-96
2021/04/08 11:32:22;;;;;;;4.30;3.83;;;;;;;;;;5061006;28;21511;-95
2021/04/08 11:34:50;;;;;;;4.60;3.27;;;;;;;;;;5053154;28;20462;-94
2021/04/08 11:37:17;;;;;;;4.60;3.60;;;;;;;;;;5066964;28;20496;-96
2021/04/08 11:39:44;;;;;;;5.87;5.37;;;;;;;;;;5051223;28;20451;-95
2021/04/08 11:42:20;;;;;;;6.47;5.50;;;;;;;;;;5058398;28;20483;-96
2021/04/08 11:44:53;;;;;;;5.00;3.47;;;;;;;;;;5051973;28;20443;-94
2021/04/08 11:47:21;;;;;;;3.50;3.17;;;;;;;;;;5045341;28;20534;-92
2021/04/08 11:49:50;;;;;;;4.57;4.07;;;;;;;;;;5031875;28;20457;-95
2021/04/08 11:52:17;;;;;;;6.97;4.30;;;;;;;;;;5046528;28;20489;-95
2021/04/08 11:55:04;;;;;;;5.40;4.23;;;;;;;;;;5056198;28;20464;-92
2021/04/08 11:57:30;;;;;;;7.20;6.50;;;;;;;;;;5053340;28;20512;-95
2021/04/08 12:00:05;;;;;;;4.10;3.70;;;;;;;;;;5046691;28;20449;-94
2021/04/08 12:02:33;;;;;;;6.73;5.57;;;;;;;;;;5054437;28;20474;-95
2021/04/08 12:05:01;;;;;;;5.23;4.40;;;;;;;;;;5052759;28;20457;-95
2021/04/08 12:07:27;;;;;;;6.83;5.27;;;;;;;;;;5058682;28;20458;-94
2021/04/08 12:09:54;;;;;;;7.13;4.70;;;;;;;;;;5059043;28;20462;-92
2021/04/08 12:12:29;;;;;;;5.10;4.57;;;;;;;;;;5049369;28;20487;-91
2021/04/08 12:14:57;;;;;;;5.23;4.80;;;;;;;;;;5051888;28;20459;-93
2021/04/08 12:17:23;;;;;;;4.00;3.50;;;;;;;;;;5066355;28;20445;-95
2021/04/08 12:19:50;;;;;;;4.60;4.00;;;;;;;;;;5062786;28;20453;-92
2021/04/08 12:22:16;;;;;;;7.30;4.60;;;;;;;;;;5057174;28;20465;-91
2021/04/08 12:25:07;;;;;;;4.73;4.27;;;;;;;;;;5050739;28;20457;-94
2021/04/08 12:27:33;;;;;;;5.97;5.47;;;;;;;;;;5044657;28;20504;-94
2021/04/08 12:30:00;;;;;;;5.10;4.40;;;;;;;;;;5049260;28;20453;-93
2021/04/08 12:32:29;;;;;;;6.00;3.80;;;;;;;;;;5048146;28;20491;-94
2021/04/08 12:34:56;;;;;;;4.93;4.53;;;;;;;;;;5045532;28;20483;-94
2021/04/08 12:37:23;;;;;;;5.77;4.50;;;;;;;;;;5053296;28;20459;-95
2021/04/08 12:39:49;;;;;;;9.07;8.23;;;;;;;;;;5057042;28;20449;-93
2021/04/08 12:42:15;;;;;;;5.03;3.50;;;;;;;;;;5043759;28;20489;-94
2021/04/08 12:44:41;;;;;;;3.67;3.00;;;;;;;;;;5043562;28;20465;-95
2021/04/08 12:47:08;;;;;;;5.33;4.00;;;;;;;;;;5048530;28;20465;-95
2021/04/08 12:49:36;;;;;;;5.17;4.20;;;;;;;;;;5055303;28;20453;-92
2021/04/08 12:52:04;;;;;;;4.17;3.77;;;;;;;;;;5045507;28;20461;-96
2021/04/08 12:54:31;;;;;;;5.20;4.57;;;;;;;;;;5044211;28;20435;-94
2021/04/08 12:56:57;;;;;;;5.77;4.40;;;;;;;;;;5044352;28;20526;-95
2021/04/08 12:59:23;;;;;;;4.73;4.23;;;;;;;;;;5054471;28;20455;-92
2021/04/08 13:01:51;;;;;;;6.53;4.67;;;;;;;;;;5025941;28;20447;-96
2021/04/08 13:04:17;;;;;;;5.20;4.70;;;;;;;;;;5046036;28;20450;-94
2021/04/08 13:06:43;;;;;;;4.93;4.43;;;;;;;;;;5050641;28;20474;-92
2021/04/08 13:09:11;;;;;;;4.60;3.90;;;;;;;;;;5054748;28;20515;-95
2021/04/08 13:11:39;;;;;;;5.27;4.30;;;;;;;;;;5037419;28;20465;-95
2021/04/08 13:14:08;;;;;;;5.40;4.53;;;;;;;;;;5047103;28;20490;-94
2021/04/08 13:16:34;;;;;;;5.53;5.00;;;;;;;;;;5050749;28;20451;-91
2021/04/08 13:19:00;;;;;;;5.10;4.30;;;;;;;;;;5050332;28;20525;-91
2021/04/08 13:21:26;;;;;;;4.43;3.70;;;;;;;;;;5051939;28;20455;-94
2021/04/08 13:23:53;;;;;;;4.27;3.87;;;;;;;;;;5049900;28;20454;-94
2021/04/08 13:26:20;;;;;;;5.20;4.50;;;;;;;;;;5046126;28;20451;-95
2021/04/08 13:28:46;;;;;;;4.00;3.60;;;;;;;;;;5050805;28;20470;-95
2021/04/08 13:31:12;;;;;;;3.33;2.63;;;;;;;;;;5045199;28;20910;-95
2021/04/08 13:33:41;;;;;;;4.20;3.80;;;;;;;;;;5057160;28;20469;-96
2021/04/08 13:36:07;;;;;;;6.53;3.50;;;;;;;;;;5065579;23;20462;-93
2021/04/08 13:38:33;;;;;;;4.00;3.60;;;;;;;;;;5000296;28;20550;-95
2021/04/08 13:41:00;;;;;;;3.97;3.57;;;;;;;;;;5005442;28;20453;-95
2021/04/08 13:43:26;;;;;;;4.67;3.87;;;;;;;;;;5005377;28;20470;-95
2021/04/08 13:45:52;;;;;;;4.80;4.30;;;;;;;;;;5009220;28;20472;-93
2021/04/08 13:48:19;;;;;;;3.80;3.50;;;;;;;;;;5004372;28;20449;-96
2021/04/08 13:50:45;;;;;;;3.60;3.30;;;;;;;;;;5002878;28;21035;-93
2021/04/08 13:53:11;;;;;;;3.73;3.20;;;;;;;;;;5009255;28;20499;-95
2021/04/08 13:55:38;;;;;;;4.77;3.83;;;;;;;;;;5005565;28;20454;-96
2021/04/08 13:58:04;;;;;;;5.77;5.20;;;;;;;;;;5006586;28;20453;-96
2021/04/08 14:00:31;;;;;;;5.07;4.57;;;;;;;;;;5022526;28;20467;-96
2021/04/08 14:02:58;;;;;;;4.83;4.33;;;;;;;;;;5012775;28;20475;-96
2021/04/08 14:05:24;;;;;;;5.17;4.30;;;;;;;;;;5023965;28;20457;-96
2021/04/08 14:07:51;;;;;;;7.70;3.90;;;;;;;;;;5024568;28;20472;-95
2021/04/08 14:10:21;;;;;;;4.97;3.73;;;;;;;;;;5021434;28;20468;-96
2021/04/08 14:12:47;;;;;;;5.57;4.30;;;;;;;;;;5023028;28;20478;-93
2021/04/08 14:15:14;;;;;;;4.43;3.93;;;;;;;;;;5023613;28;20551;-95
2021/04/08 14:17:41;;;;;;;4.90;4.40;;;;;;;;;;5030418;28;20429;-94
2021/04/08 14:20:10;;;;;;;4.10;3.50;;;;;;;;;;5024338;28;20482;-96
2021/04/08 14:22:37;;;;;;;4.60;4.10;;;;;;;;;;5027149;28;20508;-94
2021/04/08 14:25:04;;;;;;;5.13;4.37;;;;;;;;;;5021671;28;20488;-94
2021/04/08 14:27:30;;;;;;;4.87;4.00;;;;;;;;;;5027196;28;20968;-96
2021/04/08 14:29:56;;;;;;;5.90;3.63;;;;;;;;;;5023176;28;20452;-94
2021/04/08 14:32:23;;;;;;;4.33;4.00;;;;;;;;;;5025164;28;20480;-90
2021/04/08 14:34:53;;;;;;;3.70;3.27;;;;;;;;;;5025279;28;20458;-95
2021/04/08 14:37:19;;;;;;;4.30;3.90;;;;;;;;;;5023874;28;21049;-93